sensor_id;sensor_type;location;lat;lon;timestamp;P1;durP1;ratioP1;P2;durP2;ratioP2
71759;SDS011;59919;48.112;16.280;2023-10-19T00:00:24;4.18;;;3.42;;
71759;SDS011;59919;48.112;16.280;2023-10-19T00:02:55;3.35;;;3.05;;
71759;SDS011;59919;48.112;16.280;2023-10-19T00:05:27;4.07;;;3.67;;
71759;SDS011;59919;48.112;16.280;2023-10-19T00:08:03;3.88;;;3.10;;
71759;SDS011;59919;48.112;16.280;2023-10-19T00:10:49;3.75;;;3.20;;
71759;SDS011;59919;48.112;16.280;2023-10-19T00:13:41;3.33;;;3.00;;
71759;SDS011;59919;48.112;16.280;2023-10-19T00:16:15;4.32;;;3.40;;
71759;SDS011;59919;48.112;16.280;2023-10-19T00:18:52;3.30;;;3.00;;
71759;SDS011;59919;48.112;16.280;2023-10-19T00:21:30;3.20;;;2.85;;
71759;SDS011;59919;48.112;16.280;2023-10-19T00:24:18;3.80;;;3.47;;
71759;SDS011;59919;48.112;16.280;2023-10-19T00:26:52;3.90;;;3.50;;
71759;SDS011;59919;48.112;16.280;2023-10-19T00:29:25;3.85;;;3.40;;
71759;SDS011;59919;48.112;16.280;2023-10-19T00:32:03;3.38;;;3.08;;
71759;SDS011;59919;48.112;16.280;2023-10-19T00:34:43;3.47;;;3.17;;
71759;SDS011;59919;48.112;16.280;2023-10-19T00:37:21;3.60;;;3.30;;
71759;SDS011;59919;48.112;16.280;2023-10-19T00:39:57;4.28;;;2.92;;
71759;SDS011;59919;48.112;16.280;2023-10-19T00:42:44;3.55;;;3.25;;
71759;SDS011;59919;48.112;16.280;2023-10-19T00:45:20;3.90;;;3.35;;
71759;SDS011;59919;48.112;16.280;2023-10-19T00:47:57;4.07;;;3.00;;
71759;SDS011;59919;48.112;16.280;2023-10-19T00:50:33;3.65;;;3.33;;
71759;SDS011;59919;48.112;16.280;2023-10-19T00:53:05;3.92;;;3.53;;
71759;SDS011;59919;48.112;16.280;2023-10-19T00:55:39;4.15;;;3.75;;
71759;SDS011;59919;48.112;16.280;2023-10-19T00:58:13;3.53;;;3.22;;
71759;SDS011;59919;48.112;16.280;2023-10-19T01:00:48;4.30;;;3.45;;
71759;SDS011;59919;48.112;16.280;2023-10-19T01:06:03;3.33;;;3.03;;
71759;SDS011;59919;48.112;16.280;2023-10-19T01:08:43;3.92;;;3.42;;
71759;SDS011;59919;48.112;16.280;2023-10-19T01:11:21;4.50;;;3.58;;
71759;SDS011;59919;48.112;16.280;2023-10-19T01:13:59;4.50;;;3.60;;
71759;SDS011;59919;48.112;16.280;2023-10-19T01:16:30;3.50;;;3.20;;
71759;SDS011;59919;48.112;16.280;2023-10-19T01:19:02;3.25;;;2.95;;
71759;SDS011;59919;48.112;16.280;2023-10-19T01:21:37;3.15;;;2.85;;
71759;SDS011;59919;48.112;16.280;2023-10-19T01:24:12;3.35;;;3.05;;
71759;SDS011;59919;48.112;16.280;2023-10-19T01:26:47;4.05;;;3.65;;
71759;SDS011;59919;48.112;16.280;2023-10-19T01:29:18;3.75;;;3.30;;
71759;SDS011;59919;48.112;16.280;2023-10-19T01:31:56;3.67;;;3.33;;
71759;SDS011;59919;48.112;16.280;2023-10-19T01:34:37;3.60;;;3.15;;
71759;SDS011;59919;48.112;16.280;2023-10-19T01:37:08;3.53;;;3.20;;
71759;SDS011;59919;48.112;16.280;2023-10-19T01:39:42;3.95;;;3.55;;
71759;SDS011;59919;48.112;16.280;2023-10-19T01:42:16;3.38;;;3.03;;
71759;SDS011;59919;48.112;16.280;2023-10-19T01:44:48;3.67;;;3.30;;
71759;SDS011;59919;48.112;16.280;2023-10-19T01:47:19;3.85;;;3.42;;
71759;SDS011;59919;48.112;16.280;2023-10-19T01:49:54;4.18;;;3.78;;
71759;SDS011;59919;48.112;16.280;2023-10-19T01:52:27;4.43;;;3.60;;
71759;SDS011;59919;48.112;16.280;2023-10-19T01:54:58;4.50;;;3.88;;
71759;SDS011;59919;48.112;16.280;2023-10-19T01:57:33;3.58;;;3.22;;
71759;SDS011;59919;48.112;16.280;2023-10-19T02:00:07;3.50;;;3.20;;
71759;SDS011;59919;48.112;16.280;2023-10-19T02:02:42;3.72;;;3.17;;
71759;SDS011;59919;48.112;16.280;2023-10-19T02:05:18;4.68;;;3.65;;
71759;SDS011;59919;48.112;16.280;2023-10-19T02:07:49;4.05;;;3.42;;
71759;SDS011;59919;48.112;16.280;2023-10-19T02:10:20;3.92;;;3.53;;
71759;SDS011;59919;48.112;16.280;2023-10-19T02:12:53;3.95;;;3.30;;
71759;SDS011;59919;48.112;16.280;2023-10-19T02:15:30;3.70;;;3.35;;
71759;SDS011;59919;48.112;16.280;2023-10-19T02:18:05;3.92;;;3.25;;
71759;SDS011;59919;48.112;16.280;2023-10-19T02:20:36;3.58;;;3.25;;
71759;SDS011;59919;48.112;16.280;2023-10-19T02:23:11;4.15;;;3.45;;
71759;SDS011;59919;48.112;16.280;2023-10-19T02:25:42;4.60;;;4.15;;
71759;SDS011;59919;48.112;16.280;2023-10-19T02:28:20;4.40;;;3.72;;
71759;SDS011;59919;48.112;16.280;2023-10-19T02:31:02;5.00;;;3.67;;
71759;SDS011;59919;48.112;16.280;2023-10-19T02:33:49;3.60;;;3.30;;
71759;SDS011;59919;48.112;16.280;2023-10-19T02:36:30;4.10;;;3.70;;
71759;SDS011;59919;48.112;16.280;2023-10-19T02:39:05;3.72;;;3.35;;
71759;SDS011;59919;48.112;16.280;2023-10-19T02:41:40;3.88;;;3.38;;
71759;SDS011;59919;48.112;16.280;2023-10-19T02:44:17;3.78;;;3.47;;
71759;SDS011;59919;48.112;16.280;2023-10-19T02:46:49;4.80;;;3.50;;
71759;SDS011;59919;48.112;16.280;2023-10-19T02:49:39;4.10;;;3.63;;
71759;SDS011;59919;48.112;16.280;2023-10-19T02:52:10;3.58;;;3.25;;
71759;SDS011;59919;48.112;16.280;2023-10-19T02:54:46;4.03;;;3.35;;
71759;SDS011;59919;48.112;16.280;2023-10-19T02:57:18;3.95;;;3.55;;
71759;SDS011;59919;48.112;16.280;2023-10-19T02:59:49;3.75;;;3.40;;
71759;SDS011;59919;48.112;16.280;2023-10-19T03:02:20;4.75;;;4.25;;
71759;SDS011;59919;48.112;16.280;2023-10-19T03:04:55;3.88;;;3.45;;
71759;SDS011;59919;48.112;16.280;2023-10-19T03:07:26;3.83;;;3.47;;
71759;SDS011;59919;48.112;16.280;2023-10-19T03:09:57;4.07;;;3.67;;
71759;SDS011;59919;48.112;16.280;2023-10-19T03:12:31;4.40;;;3.60;;
71759;SDS011;59919;48.112;16.280;2023-10-19T03:15:05;4.28;;;3.88;;
71759;SDS011;59919;48.112;16.280;2023-10-19T03:17:40;3.88;;;3.47;;
71759;SDS011;59919;48.112;16.280;2023-10-19T03:20:11;4.32;;;3.92;;
71759;SDS011;59919;48.112;16.280;2023-10-19T03:22:42;4.53;;;4.10;;
71759;SDS011;59919;48.112;16.280;2023-10-19T03:25:16;4.28;;;3.88;;
71759;SDS011;59919;48.112;16.280;2023-10-19T03:28:06;4.15;;;3.38;;
71759;SDS011;59919;48.112;16.280;2023-10-19T03:30:45;3.33;;;3.03;;
71759;SDS011;59919;48.112;16.280;2023-10-19T03:33:17;4.05;;;3.50;;
71759;SDS011;59919;48.112;16.280;2023-10-19T03:35:53;4.07;;;3.45;;
71759;SDS011;59919;48.112;16.280;2023-10-19T03:38:30;3.72;;;3.42;;
71759;SDS011;59919;48.112;16.280;2023-10-19T03:43:41;4.03;;;3.22;;
71759;SDS011;59919;48.112;16.280;2023-10-19T03:46:15;4.13;;;3.70;;
71759;SDS011;59919;48.112;16.280;2023-10-19T03:49:02;4.20;;;3.42;;
71759;SDS011;59919;48.112;16.280;2023-10-19T03:51:41;5.22;;;3.85;;
71759;SDS011;59919;48.112;16.280;2023-10-19T03:54:29;4.82;;;3.78;;
71759;SDS011;59919;48.112;16.280;2023-10-19T03:57:03;4.00;;;3.60;;
71759;SDS011;59919;48.112;16.280;2023-10-19T03:59:39;4.20;;;3.70;;
71759;SDS011;59919;48.112;16.280;2023-10-19T04:02:15;4.10;;;3.70;;
71759;SDS011;59919;48.112;16.280;2023-10-19T04:04:57;6.15;;;4.13;;
71759;SDS011;59919;48.112;16.280;2023-10-19T04:07:31;3.90;;;3.60;;
71759;SDS011;59919;48.112;16.280;2023-10-19T04:10:02;4.18;;;3.67;;
71759;SDS011;59919;48.112;16.280;2023-10-19T04:12:39;4.22;;;3.83;;
71759;SDS011;59919;48.112;16.280;2023-10-19T04:15:21;5.03;;;4.15;;
71759;SDS011;59919;48.112;16.280;2023-10-19T04:17:52;4.13;;;3.67;;
71759;SDS011;59919;48.112;16.280;2023-10-19T04:20:25;4.95;;;4.28;;
71759;SDS011;59919;48.112;16.280;2023-10-19T04:23:05;5.82;;;4.30;;
71759;SDS011;59919;48.112;16.280;2023-10-19T04:25:41;4.47;;;4.07;;
71759;SDS011;59919;48.112;16.280;2023-10-19T04:28:12;4.32;;;3.78;;
71759;SDS011;59919;48.112;16.280;2023-10-19T04:30:51;4.75;;;4.25;;
71759;SDS011;59919;48.112;16.280;2023-10-19T04:33:24;4.63;;;4.03;;
71759;SDS011;59919;48.112;16.280;2023-10-19T04:35:58;5.13;;;4.28;;
71759;SDS011;59919;48.112;16.280;2023-10-19T04:38:32;5.03;;;3.95;;
71759;SDS011;59919;48.112;16.280;2023-10-19T04:41:07;4.38;;;3.90;;
71759;SDS011;59919;48.112;16.280;2023-10-19T04:43:41;4.18;;;3.80;;
71759;SDS011;59919;48.112;16.280;2023-10-19T04:46:23;4.45;;;4.05;;
71759;SDS011;59919;48.112;16.280;2023-10-19T04:48:54;4.38;;;3.92;;
71759;SDS011;59919;48.112;16.280;2023-10-19T04:51:25;4.38;;;3.97;;
71759;SDS011;59919;48.112;16.280;2023-10-19T04:53:56;5.30;;;4.00;;
71759;SDS011;59919;48.112;16.280;2023-10-19T04:56:27;4.10;;;3.70;;
71759;SDS011;59919;48.112;16.280;2023-10-19T04:58:58;4.75;;;4.10;;
71759;SDS011;59919;48.112;16.280;2023-10-19T05:01:29;4.20;;;3.80;;
71759;SDS011;59919;48.112;16.280;2023-10-19T05:04:04;4.22;;;3.83;;
71759;SDS011;59919;48.112;16.280;2023-10-19T05:06:37;5.63;;;4.45;;
71759;SDS011;59919;48.112;16.280;2023-10-19T05:09:09;4.13;;;3.65;;
71759;SDS011;59919;48.112;16.280;2023-10-19T05:11:42;4.25;;;3.85;;
71759;SDS011;59919;48.112;16.280;2023-10-19T05:14:14;4.55;;;3.92;;
71759;SDS011;59919;48.112;16.280;2023-10-19T05:16:45;4.35;;;3.95;;
71759;SDS011;59919;48.112;16.280;2023-10-19T05:19:17;6.07;;;3.97;;
71759;SDS011;59919;48.112;16.280;2023-10-19T05:21:48;4.93;;;3.78;;
71759;SDS011;59919;48.112;16.280;2023-10-19T05:24:19;4.63;;;4.13;;
71759;SDS011;59919;48.112;16.280;2023-10-19T05:26:49;4.72;;;4.15;;
71759;SDS011;59919;48.112;16.280;2023-10-19T05:29:21;5.00;;;4.10;;
71759;SDS011;59919;48.112;16.280;2023-10-19T05:31:53;4.38;;;3.97;;
71759;SDS011;59919;48.112;16.280;2023-10-19T05:34:28;4.22;;;3.83;;
71759;SDS011;59919;48.112;16.280;2023-10-19T05:37:05;4.30;;;3.88;;
71759;SDS011;59919;48.112;16.280;2023-10-19T05:39:36;5.00;;;4.10;;
71759;SDS011;59919;48.112;16.280;2023-10-19T05:42:07;4.22;;;3.83;;
71759;SDS011;59919;48.112;16.280;2023-10-19T05:44:40;5.07;;;4.20;;
71759;SDS011;59919;48.112;16.280;2023-10-19T05:47:11;4.82;;;4.00;;
71759;SDS011;59919;48.112;16.280;2023-10-19T05:49:42;4.63;;;4.13;;
71759;SDS011;59919;48.112;16.280;2023-10-19T05:52:14;4.43;;;4.03;;
71759;SDS011;59919;48.112;16.280;2023-10-19T05:54:45;4.50;;;4.05;;
71759;SDS011;59919;48.112;16.280;2023-10-19T05:57:16;5.35;;;4.53;;
71759;SDS011;59919;48.112;16.280;2023-10-19T05:59:47;4.78;;;3.67;;
71759;SDS011;59919;48.112;16.280;2023-10-19T06:02:18;4.40;;;4.00;;
71759;SDS011;59919;48.112;16.280;2023-10-19T06:04:52;4.72;;;4.32;;
71759;SDS011;59919;48.112;16.280;2023-10-19T06:07:27;4.57;;;4.07;;
71759;SDS011;59919;48.112;16.280;2023-10-19T06:10:01;4.63;;;4.00;;
71759;SDS011;59919;48.112;16.280;2023-10-19T06:12:35;4.47;;;4.03;;
71759;SDS011;59919;48.112;16.280;2023-10-19T06:15:07;5.57;;;4.63;;
71759;SDS011;59919;48.112;16.280;2023-10-19T06:17:41;5.50;;;4.15;;
71759;SDS011;59919;48.112;16.280;2023-10-19T06:20:13;4.53;;;4.13;;
71759;SDS011;59919;48.112;16.280;2023-10-19T06:22:59;5.18;;;4.57;;
71759;SDS011;59919;48.112;16.280;2023-10-19T06:25:36;5.68;;;4.53;;
71759;SDS011;59919;48.112;16.280;2023-10-19T06:28:08;5.18;;;4.40;;
71759;SDS011;59919;48.112;16.280;2023-10-19T06:30:39;4.43;;;4.03;;
71759;SDS011;59919;48.112;16.280;2023-10-19T06:33:10;5.05;;;4.40;;
71759;SDS011;59919;48.112;16.280;2023-10-19T06:35:44;5.15;;;4.65;;
71759;SDS011;59919;48.112;16.280;2023-10-19T06:38:18;5.32;;;4.47;;
71759;SDS011;59919;48.112;16.280;2023-10-19T06:40:49;4.72;;;4.20;;
71759;SDS011;59919;48.112;16.280;2023-10-19T06:43:20;4.63;;;4.22;;
71759;SDS011;59919;48.112;16.280;2023-10-19T06:45:59;5.03;;;4.40;;
71759;SDS011;59919;48.112;16.280;2023-10-19T06:48:31;5.03;;;4.22;;
71759;SDS011;59919;48.112;16.280;2023-10-19T06:51:02;5.65;;;4.68;;
71759;SDS011;59919;48.112;16.280;2023-10-19T06:53:34;5.30;;;4.57;;
71759;SDS011;59919;48.112;16.280;2023-10-19T06:56:05;5.07;;;4.57;;
71759;SDS011;59919;48.112;16.280;2023-10-19T06:58:39;5.13;;;4.35;;
71759;SDS011;59919;48.112;16.280;2023-10-19T07:01:12;4.85;;;4.32;;
71759;SDS011;59919;48.112;16.280;2023-10-19T07:03:47;4.50;;;3.75;;
71759;SDS011;59919;48.112;16.280;2023-10-19T07:06:18;4.22;;;3.83;;
71759;SDS011;59919;48.112;16.280;2023-10-19T07:08:54;5.60;;;4.70;;
71759;SDS011;59919;48.112;16.280;2023-10-19T07:11:28;4.38;;;3.97;;
71759;SDS011;59919;48.112;16.280;2023-10-19T07:13:59;5.97;;;4.55;;
71759;SDS011;59919;48.112;16.280;2023-10-19T07:16:31;4.38;;;3.97;;
71759;SDS011;59919;48.112;16.280;2023-10-19T07:19:02;4.55;;;3.95;;
71759;SDS011;59919;48.112;16.280;2023-10-19T07:21:35;5.40;;;4.32;;
71759;SDS011;59919;48.112;16.280;2023-10-19T07:24:07;4.40;;;4.00;;
71759;SDS011;59919;48.112;16.280;2023-10-19T07:26:41;4.95;;;4.38;;
71759;SDS011;59919;48.112;16.280;2023-10-19T07:29:23;4.78;;;4.35;;
71759;SDS011;59919;48.112;16.280;2023-10-19T07:31:54;5.15;;;4.60;;
71759;SDS011;59919;48.112;16.280;2023-10-19T07:34:26;4.50;;;3.92;;
71759;SDS011;59919;48.112;16.280;2023-10-19T07:37:01;5.20;;;4.55;;
71759;SDS011;59919;48.112;16.280;2023-10-19T07:39:36;4.63;;;4.07;;
71759;SDS011;59919;48.112;16.280;2023-10-19T07:42:09;4.82;;;4.32;;
71759;SDS011;59919;48.112;16.280;2023-10-19T07:44:43;4.97;;;4.47;;
71759;SDS011;59919;48.112;16.280;2023-10-19T07:47:16;4.80;;;4.30;;
71759;SDS011;59919;48.112;16.280;2023-10-19T07:49:47;4.90;;;4.20;;
71759;SDS011;59919;48.112;16.280;2023-10-19T07:52:19;4.60;;;4.20;;
71759;SDS011;59919;48.112;16.280;2023-10-19T07:54:50;4.45;;;4.05;;
71759;SDS011;59919;48.112;16.280;2023-10-19T07:57:21;4.43;;;3.97;;
71759;SDS011;59919;48.112;16.280;2023-10-19T07:59:52;4.53;;;4.00;;
71759;SDS011;59919;48.112;16.280;2023-10-19T08:02:27;5.47;;;4.97;;
71759;SDS011;59919;48.112;16.280;2023-10-19T08:04:59;4.78;;;4.30;;
71759;SDS011;59919;48.112;16.280;2023-10-19T08:07:41;6.22;;;4.80;;
71759;SDS011;59919;48.112;16.280;2023-10-19T08:10:16;5.03;;;4.53;;
71759;SDS011;59919;48.112;16.280;2023-10-19T08:12:48;4.70;;;4.30;;
71759;SDS011;59919;48.112;16.280;2023-10-19T08:15:20;7.25;;;6.07;;
71759;SDS011;59919;48.112;16.280;2023-10-19T08:17:51;4.47;;;4.05;;
71759;SDS011;59919;48.112;16.280;2023-10-19T08:20:25;6.43;;;4.75;;
71759;SDS011;59919;48.112;16.280;2023-10-19T08:23:02;5.82;;;4.75;;
71759;SDS011;59919;48.112;16.280;2023-10-19T08:25:33;5.85;;;4.55;;
71759;SDS011;59919;48.112;16.280;2023-10-19T08:28:07;5.30;;;4.80;;
71759;SDS011;59919;48.112;16.280;2023-10-19T08:30:38;6.10;;;5.05;;
71759;SDS011;59919;48.112;16.280;2023-10-19T08:33:12;6.97;;;4.40;;
71759;SDS011;59919;48.112;16.280;2023-10-19T08:35:44;5.65;;;5.03;;
71759;SDS011;59919;48.112;16.280;2023-10-19T08:38:16;5.28;;;4.43;;
71759;SDS011;59919;48.112;16.280;2023-10-19T08:40:47;5.88;;;5.20;;
71759;SDS011;59919;48.112;16.280;2023-10-19T08:43:21;5.43;;;4.60;;
71759;SDS011;59919;48.112;16.280;2023-10-19T08:45:56;5.57;;;4.68;;
71759;SDS011;59919;48.112;16.280;2023-10-19T08:48:28;5.20;;;4.70;;
71759;SDS011;59919;48.112;16.280;2023-10-19T08:51:08;6.03;;;5.28;;
71759;SDS011;59919;48.112;16.280;2023-10-19T08:53:40;5.72;;;5.13;;
71759;SDS011;59919;48.112;16.280;2023-10-19T08:56:12;5.65;;;5.13;;
71759;SDS011;59919;48.112;16.280;2023-10-19T08:58:46;5.80;;;5.20;;
71759;SDS011;59919;48.112;16.280;2023-10-19T09:01:18;5.85;;;5.25;;
71759;SDS011;59919;48.112;16.280;2023-10-19T09:03:50;6.30;;;5.70;;
71759;SDS011;59919;48.112;16.280;2023-10-19T09:06:24;5.47;;;4.97;;
71759;SDS011;59919;48.112;16.280;2023-10-19T09:08:56;5.25;;;4.68;;
71759;SDS011;59919;48.112;16.280;2023-10-19T09:11:28;5.40;;;4.90;;
71759;SDS011;59919;48.112;16.280;2023-10-19T09:14:04;5.57;;;5.07;;
71759;SDS011;59919;48.112;16.280;2023-10-19T09:16:36;5.78;;;5.28;;
71759;SDS011;59919;48.112;16.280;2023-10-19T09:19:10;5.88;;;5.28;;
71759;SDS011;59919;48.112;16.280;2023-10-19T09:21:41;5.78;;;4.95;;
71759;SDS011;59919;48.112;16.280;2023-10-19T09:24:12;5.82;;;5.30;;
71759;SDS011;59919;48.112;16.280;2023-10-19T09:26:43;5.35;;;4.85;;
71759;SDS011;59919;48.112;16.280;2023-10-19T09:29:17;5.40;;;4.88;;
71759;SDS011;59919;48.112;16.280;2023-10-19T09:31:52;5.78;;;5.18;;
71759;SDS011;59919;48.112;16.280;2023-10-19T09:34:27;6.07;;;5.47;;
71759;SDS011;59919;48.112;16.280;2023-10-19T09:37:03;5.80;;;5.20;;
71759;SDS011;59919;48.112;16.280;2023-10-19T09:39:34;7.05;;;5.50;;
71759;SDS011;59919;48.112;16.280;2023-10-19T09:42:06;6.28;;;5.13;;
71759;SDS011;59919;48.112;16.280;2023-10-19T09:44:44;5.82;;;5.22;;
71759;SDS011;59919;48.112;16.280;2023-10-19T09:49:54;5.57;;;4.97;;
71759;SDS011;59919;48.112;16.280;2023-10-19T09:52:26;6.40;;;5.40;;
71759;SDS011;59919;48.112;16.280;2023-10-19T09:55:03;5.80;;;5.20;;
71759;SDS011;59919;48.112;16.280;2023-10-19T10:00:49;6.65;;;5.05;;
71759;SDS011;59919;48.112;16.280;2023-10-19T10:06:14;6.63;;;5.25;;
71759;SDS011;59919;48.112;16.280;2023-10-19T10:08:47;5.80;;;4.75;;
71759;SDS011;59919;48.112;16.280;2023-10-19T10:11:23;7.05;;;5.15;;
71759;SDS011;59919;48.112;16.280;2023-10-19T10:13:57;6.85;;;5.40;;
71759;SDS011;59919;48.112;16.280;2023-10-19T10:16:31;6.00;;;5.15;;
71759;SDS011;59919;48.112;16.280;2023-10-19T10:19:04;6.20;;;5.30;;
71759;SDS011;59919;48.112;16.280;2023-10-19T10:21:38;5.15;;;4.65;;
71759;SDS011;59919;48.112;16.280;2023-10-19T10:24:09;5.93;;;5.32;;
71759;SDS011;59919;48.112;16.280;2023-10-19T10:26:58;5.82;;;4.72;;
71759;SDS011;59919;48.112;16.280;2023-10-19T10:29:31;5.50;;;4.85;;
71759;SDS011;59919;48.112;16.280;2023-10-19T10:32:02;5.05;;;4.55;;
71759;SDS011;59919;48.112;16.280;2023-10-19T10:37:07;5.30;;;4.80;;
71759;SDS011;59919;48.112;16.280;2023-10-19T10:39:42;5.53;;;4.97;;
71759;SDS011;59919;48.112;16.280;2023-10-19T10:42:16;5.85;;;5.25;;
71759;SDS011;59919;48.112;16.280;2023-10-19T10:44:50;5.80;;;4.80;;
71759;SDS011;59919;48.112;16.280;2023-10-19T10:47:26;5.32;;;4.82;;
71759;SDS011;59919;48.112;16.280;2023-10-19T10:50:00;8.15;;;5.38;;
71759;SDS011;59919;48.112;16.280;2023-10-19T10:52:35;5.18;;;4.68;;
71759;SDS011;59919;48.112;16.280;2023-10-19T10:55:11;6.57;;;5.03;;
71759;SDS011;59919;48.112;16.280;2023-10-19T10:57:45;5.90;;;5.28;;
71759;SDS011;59919;48.112;16.280;2023-10-19T11:00:16;5.28;;;4.78;;
71759;SDS011;59919;48.112;16.280;2023-10-19T11:02:58;6.00;;;5.35;;
71759;SDS011;59919;48.112;16.280;2023-10-19T11:05:38;6.30;;;5.25;;
71759;SDS011;59919;48.112;16.280;2023-10-19T11:08:13;6.03;;;5.18;;
71759;SDS011;59919;48.112;16.280;2023-10-19T11:10:48;6.88;;;5.25;;
71759;SDS011;59919;48.112;16.280;2023-10-19T11:13:25;6.93;;;4.90;;
71759;SDS011;59919;48.112;16.280;2023-10-19T11:15:56;6.00;;;5.05;;
71759;SDS011;59919;48.112;16.280;2023-10-19T11:18:40;7.25;;;5.00;;
71759;SDS011;59919;48.112;16.280;2023-10-19T11:21:16;5.57;;;5.07;;
71759;SDS011;59919;48.112;16.280;2023-10-19T11:23:49;5.80;;;4.95;;
71759;SDS011;59919;48.112;16.280;2023-10-19T11:26:23;6.38;;;5.28;;
71759;SDS011;59919;48.112;16.280;2023-10-19T11:28:58;5.03;;;4.40;;
71759;SDS011;59919;48.112;16.280;2023-10-19T11:31:31;7.75;;;4.72;;
71759;SDS011;59919;48.112;16.280;2023-10-19T11:34:12;5.22;;;4.57;;
71759;SDS011;59919;48.112;16.280;2023-10-19T11:36:52;6.20;;;4.53;;
71759;SDS011;59919;48.112;16.280;2023-10-19T11:39:27;5.35;;;4.75;;
71759;SDS011;59919;48.112;16.280;2023-10-19T11:41:59;8.27;;;5.10;;
71759;SDS011;59919;48.112;16.280;2023-10-19T11:44:30;9.52;;;4.70;;
71759;SDS011;59919;48.112;16.280;2023-10-19T11:47:01;5.35;;;4.82;;
71759;SDS011;59919;48.112;16.280;2023-10-19T11:49:34;6.70;;;5.00;;
71759;SDS011;59919;48.112;16.280;2023-10-19T11:52:05;6.88;;;4.90;;
71759;SDS011;59919;48.112;16.280;2023-10-19T11:54:37;6.60;;;5.50;;
71759;SDS011;59919;48.112;16.280;2023-10-19T11:59:45;5.60;;;5.00;;
71759;SDS011;59919;48.112;16.280;2023-10-19T12:04:53;4.78;;;3.90;;
71759;SDS011;59919;48.112;16.280;2023-10-19T12:07:24;6.82;;;4.75;;
71759;SDS011;59919;48.112;16.280;2023-10-19T12:09:59;5.35;;;4.70;;
71759;SDS011;59919;48.112;16.280;2023-10-19T12:12:30;5.35;;;4.40;;
71759;SDS011;59919;48.112;16.280;2023-10-19T12:15:04;6.00;;;4.53;;
71759;SDS011;59919;48.112;16.280;2023-10-19T12:17:38;4.97;;;4.47;;
71759;SDS011;59919;48.112;16.280;2023-10-19T12:20:10;7.35;;;4.80;;
71759;SDS011;59919;48.112;16.280;2023-10-19T12:22:44;6.65;;;5.10;;
71759;SDS011;59919;48.112;16.280;2023-10-19T12:25:17;6.30;;;5.07;;
71759;SDS011;59919;48.112;16.280;2023-10-19T12:27:48;5.95;;;4.95;;
71759;SDS011;59919;48.112;16.280;2023-10-19T12:30:19;5.47;;;4.88;;
71759;SDS011;59919;48.112;16.280;2023-10-19T12:32:55;5.50;;;4.20;;
71759;SDS011;59919;48.112;16.280;2023-10-19T12:35:26;4.75;;;4.25;;
71759;SDS011;59919;48.112;16.280;2023-10-19T12:38:21;7.75;;;4.85;;
71759;SDS011;59919;48.112;16.280;2023-10-19T12:40:53;5.55;;;4.57;;
71759;SDS011;59919;48.112;16.280;2023-10-19T12:43:24;5.63;;;4.55;;
71759;SDS011;59919;48.112;16.280;2023-10-19T12:45:56;5.57;;;4.97;;
71759;SDS011;59919;48.112;16.280;2023-10-19T12:48:28;5.13;;;4.63;;
71759;SDS011;59919;48.112;16.280;2023-10-19T12:51:03;5.57;;;4.38;;
71759;SDS011;59919;48.112;16.280;2023-10-19T12:53:37;5.10;;;4.60;;
71759;SDS011;59919;48.112;16.280;2023-10-19T12:56:12;7.07;;;5.10;;
71759;SDS011;59919;48.112;16.280;2023-10-19T12:58:43;5.60;;;4.90;;
71759;SDS011;59919;48.112;16.280;2023-10-19T13:01:14;5.47;;;4.90;;
71759;SDS011;59919;48.112;16.280;2023-10-19T13:03:50;4.90;;;4.40;;
71759;SDS011;59919;48.112;16.280;2023-10-19T13:06:21;5.10;;;4.60;;
71759;SDS011;59919;48.112;16.280;2023-10-19T13:08:54;5.97;;;4.72;;
71759;SDS011;59919;48.112;16.280;2023-10-19T13:11:26;5.07;;;4.57;;
71759;SDS011;59919;48.112;16.280;2023-10-19T13:13:58;7.13;;;4.88;;
71759;SDS011;59919;48.112;16.280;2023-10-19T13:16:31;5.20;;;4.50;;
71759;SDS011;59919;48.112;16.280;2023-10-19T13:19:03;5.63;;;4.75;;
71759;SDS011;59919;48.112;16.280;2023-10-19T13:21:39;5.45;;;4.78;;
71759;SDS011;59919;48.112;16.280;2023-10-19T13:24:12;4.80;;;4.15;;
71759;SDS011;59919;48.112;16.280;2023-10-19T13:26:44;5.13;;;4.60;;
71759;SDS011;59919;48.112;16.280;2023-10-19T13:29:17;5.18;;;4.43;;
71759;SDS011;59919;48.112;16.280;2023-10-19T13:31:53;5.38;;;4.50;;
71759;SDS011;59919;48.112;16.280;2023-10-19T13:34:24;5.63;;;4.82;;
71759;SDS011;59919;48.112;16.280;2023-10-19T13:36:56;5.28;;;4.45;;
71759;SDS011;59919;48.112;16.280;2023-10-19T13:39:27;5.28;;;4.78;;
71759;SDS011;59919;48.112;16.280;2023-10-19T13:41:59;4.95;;;4.30;;
71759;SDS011;59919;48.112;16.280;2023-10-19T13:44:30;5.18;;;4.65;;
71759;SDS011;59919;48.112;16.280;2023-10-19T13:47:03;5.13;;;4.57;;
71759;SDS011;59919;48.112;16.280;2023-10-19T13:49:41;5.32;;;4.75;;
71759;SDS011;59919;48.112;16.280;2023-10-19T13:52:13;4.68;;;4.25;;
71759;SDS011;59919;48.112;16.280;2023-10-19T13:54:45;5.32;;;4.72;;
71759;SDS011;59919;48.112;16.280;2023-10-19T13:57:16;4.85;;;4.28;;
71759;SDS011;59919;48.112;16.280;2023-10-19T13:59:47;5.88;;;4.50;;
71759;SDS011;59919;48.112;16.280;2023-10-19T14:02:19;4.85;;;4.35;;
71759;SDS011;59919;48.112;16.280;2023-10-19T14:04:51;5.70;;;4.97;;
71759;SDS011;59919;48.112;16.280;2023-10-19T14:07:24;4.97;;;4.45;;
71759;SDS011;59919;48.112;16.280;2023-10-19T14:09:55;5.15;;;4.40;;
71759;SDS011;59919;48.112;16.280;2023-10-19T14:12:27;4.68;;;4.28;;
71759;SDS011;59919;48.112;16.280;2023-10-19T14:14:58;4.38;;;3.97;;
71759;SDS011;59919;48.112;16.280;2023-10-19T14:17:29;5.18;;;4.68;;
71759;SDS011;59919;48.112;16.280;2023-10-19T14:20:00;5.47;;;4.57;;
71759;SDS011;59919;48.112;16.280;2023-10-19T14:22:31;5.90;;;4.70;;
71759;SDS011;59919;48.112;16.280;2023-10-19T14:25:07;5.10;;;4.60;;
71759;SDS011;59919;48.112;16.280;2023-10-19T14:27:43;5.13;;;4.63;;
71759;SDS011;59919;48.112;16.280;2023-10-19T14:30:16;4.80;;;4.25;;
71759;SDS011;59919;48.112;16.280;2023-10-19T14:32:52;5.65;;;4.55;;
71759;SDS011;59919;48.112;16.280;2023-10-19T14:35:24;9.73;;;4.53;;
71759;SDS011;59919;48.112;16.280;2023-10-19T14:37:58;10.48;;;4.78;;
71759;SDS011;59919;48.112;16.280;2023-10-19T14:40:31;7.25;;;4.55;;
71759;SDS011;59919;48.112;16.280;2023-10-19T14:43:02;5.82;;;4.40;;
71759;SDS011;59919;48.112;16.280;2023-10-19T14:45:37;5.45;;;4.75;;
71759;SDS011;59919;48.112;16.280;2023-10-19T14:48:11;5.18;;;4.68;;
71759;SDS011;59919;48.112;16.280;2023-10-19T14:50:42;6.75;;;5.10;;
71759;SDS011;59919;48.112;16.280;2023-10-19T14:53:14;4.68;;;4.15;;
71759;SDS011;59919;48.112;16.280;2023-10-19T14:55:48;7.65;;;4.88;;
71759;SDS011;59919;48.112;16.280;2023-10-19T14:58:19;5.88;;;4.78;;
71759;SDS011;59919;48.112;16.280;2023-10-19T15:00:53;5.40;;;4.40;;
71759;SDS011;59919;48.112;16.280;2023-10-19T15:03:26;6.53;;;5.20;;
71759;SDS011;59919;48.112;16.280;2023-10-19T15:06:00;8.10;;;5.18;;
71759;SDS011;59919;48.112;16.280;2023-10-19T15:08:37;5.15;;;4.57;;
71759;SDS011;59919;48.112;16.280;2023-10-19T15:11:15;6.82;;;5.32;;
71759;SDS011;59919;48.112;16.280;2023-10-19T15:13:48;5.78;;;4.75;;
71759;SDS011;59919;48.112;16.280;2023-10-19T15:16:19;5.70;;;5.10;;
71759;SDS011;59919;48.112;16.280;2023-10-19T15:18:50;6.75;;;4.63;;
71759;SDS011;59919;48.112;16.280;2023-10-19T15:21:21;5.30;;;4.80;;
71759;SDS011;59919;48.112;16.280;2023-10-19T15:23:53;6.32;;;4.70;;
71759;SDS011;59919;48.112;16.280;2023-10-19T15:26:24;5.90;;;5.30;;
71759;SDS011;59919;48.112;16.280;2023-10-19T15:28:55;5.60;;;4.90;;
71759;SDS011;59919;48.112;16.280;2023-10-19T15:31:26;6.07;;;5.47;;
71759;SDS011;59919;48.112;16.280;2023-10-19T15:34:00;7.25;;;5.63;;